createdAt,value
2022-11-08T00:00:09.629Z,13.40
2022-11-08T00:02:37.566Z,12.80
2022-11-08T00:05:25.223Z,12.35
2022-11-08T00:08:12.215Z,11.95
2022-11-08T00:10:59.224Z,12.20
2022-11-08T00:13:46.095Z,11.50
2022-11-08T00:16:14.819Z,13.20
2022-11-08T00:18:43.167Z,13.62
2022-11-08T00:21:11.410Z,17.00
2022-11-08T00:23:40.187Z,14.70
2022-11-08T00:26:08.423Z,15.00
2022-11-08T00:28:36.152Z,15.10
2022-11-08T00:31:07.160Z,12.02
2022-11-08T00:33:35.315Z,13.35
2022-11-08T00:36:03.470Z,10.38
2022-11-08T00:38:31.112Z,11.93
2022-11-08T00:40:58.447Z,11.85
2022-11-08T00:43:25.772Z,12.30
2022-11-08T00:45:53.410Z,13.50
2022-11-08T00:48:20.950Z,10.57
2022-11-08T00:50:48.337Z,10.77
2022-11-08T00:53:15.946Z,11.05
2022-11-08T00:55:43.277Z,12.15
2022-11-08T00:58:10.610Z,12.98
2022-11-08T01:00:38.164Z,12.00
2022-11-08T01:03:20.329Z,16.83
2022-11-08T01:05:48.825Z,12.60
2022-11-08T01:08:16.838Z,12.55
2022-11-08T01:10:46.069Z,10.80
2022-11-08T01:13:13.779Z,13.60
2022-11-08T01:15:42.536Z,10.45
2022-11-08T01:18:28.808Z,11.40
2022-11-08T01:20:56.382Z,13.15
2022-11-08T01:23:23.710Z,11.50
2022-11-08T01:25:51.030Z,14.35
2022-11-08T01:28:19.024Z,12.73
2022-11-08T01:30:47.323Z,13.57
2022-11-08T01:33:15.717Z,11.60
2022-11-08T01:35:45.224Z,14.70
2022-11-08T01:38:12.572Z,12.07
2022-11-08T01:40:47.808Z,13.45
2022-11-08T01:43:30.568Z,13.75
2022-11-08T01:46:09.817Z,13.15
2022-11-08T01:48:40.271Z,13.52
2022-11-08T01:51:09.883Z,14.05
2022-11-08T01:53:37.670Z,15.07
2022-11-08T01:56:05.411Z,15.45
2022-11-08T01:58:34.845Z,14.93
2022-11-08T02:01:02.927Z,13.80
2022-11-08T02:03:33.183Z,13.38
2022-11-08T02:06:01.313Z,14.98
2022-11-08T02:08:38.624Z,17.40
2022-11-08T02:11:07.176Z,13.13
2022-11-08T02:13:35.908Z,10.57
2022-11-08T02:16:03.511Z,12.77
2022-11-08T02:18:32.076Z,17.08
2022-11-08T02:21:22.775Z,16.80
2022-11-08T02:23:52.326Z,15.93
2022-11-08T02:26:23.411Z,17.52
2022-11-08T02:28:51.282Z,17.98
2022-11-08T02:31:19.468Z,14.93
2022-11-08T02:33:47.369Z,13.62
2022-11-08T02:36:18.043Z,14.10
2022-11-08T02:38:53.452Z,16.20
2022-11-08T02:41:21.354Z,13.13
2022-11-08T02:43:48.671Z,12.95
2022-11-08T02:46:15.983Z,14.07
2022-11-08T02:48:43.557Z,14.38
2022-11-08T02:51:11.090Z,11.55
2022-11-08T02:53:38.462Z,17.02
2022-11-08T02:56:06.094Z,18.02
2022-11-08T02:58:33.412Z,15.93
2022-11-08T03:01:00.872Z,15.70
2022-11-08T03:03:28.525Z,16.35
2022-11-08T03:05:58.842Z,14.87
2022-11-08T03:08:26.171Z,16.42
2022-11-08T03:27:27.103Z,17.12
2022-11-08T03:29:54.777Z,17.70
2022-11-08T03:32:22.745Z,18.55
2022-11-08T03:34:50.042Z,18.37
2022-11-08T03:37:17.635Z,15.23
2022-11-08T03:39:44.978Z,19.45
2022-11-08T03:42:12.271Z,17.70
2022-11-08T03:44:39.831Z,17.37
2022-11-08T03:47:07.152Z,18.83
2022-11-08T03:49:34.468Z,15.60
2022-11-08T03:52:02.182Z,20.00
2022-11-08T03:54:29.539Z,16.83
2022-11-08T03:56:56.884Z,18.37
2022-11-08T03:59:24.458Z,17.35
2022-11-08T04:01:51.843Z,22.02
2022-11-08T04:04:19.539Z,16.87
2022-11-08T04:06:47.089Z,16.70
2022-11-08T04:09:19.012Z,19.62
2022-11-08T04:12:07.686Z,14.98
2022-11-08T04:14:53.754Z,18.20
2022-11-08T04:17:41.257Z,19.92
2022-11-08T04:20:27.740Z,18.12
2022-11-08T04:22:55.327Z,17.12
2022-11-08T04:25:22.660Z,14.50
2022-11-08T04:27:49.965Z,18.10
2022-11-08T04:30:17.690Z,17.27
2022-11-08T04:32:45.029Z,17.35
2022-11-08T04:35:12.446Z,18.15
2022-11-08T04:37:40.023Z,20.83
2022-11-08T04:40:08.085Z,20.58
2022-11-08T04:42:35.434Z,23.08
2022-11-08T04:45:03.300Z,20.58
2022-11-08T04:47:34.629Z,20.50
2022-11-08T04:50:05.485Z,18.55
2022-11-08T04:52:32.799Z,22.75
2022-11-08T04:55:00.143Z,17.98
2022-11-08T04:57:28.673Z,19.50
2022-11-08T04:59:56.006Z,23.17
2022-11-08T05:02:23.443Z,19.40
2022-11-08T05:04:51.063Z,18.73
2022-11-08T05:07:18.434Z,23.62
2022-11-08T05:09:45.787Z,20.70
2022-11-08T05:12:16.155Z,22.50
2022-11-08T05:14:43.484Z,23.05
2022-11-08T05:17:10.799Z,21.17
2022-11-08T05:19:57.048Z,19.08
2022-11-08T05:22:43.064Z,17.30
2022-11-08T05:25:10.646Z,18.52
2022-11-08T05:27:37.966Z,19.42
2022-11-08T05:30:05.954Z,16.67
2022-11-08T05:32:33.549Z,20.05
2022-11-08T05:35:00.872Z,25.37
2022-11-08T05:37:28.199Z,22.92
2022-11-08T05:39:55.790Z,18.70
2022-11-08T05:42:23.131Z,19.10
2022-11-08T05:44:50.511Z,21.23
2022-11-08T05:47:18.331Z,20.77
2022-11-08T05:49:45.650Z,26.05
2022-11-08T05:52:12.996Z,23.27
2022-11-08T05:54:40.584Z,24.85
2022-11-08T05:57:07.935Z,28.90
2022-11-08T05:59:35.248Z,22.30
2022-11-08T06:02:02.912Z,27.52
2022-11-08T06:04:30.712Z,33.25
2022-11-08T06:06:58.038Z,36.20
2022-11-08T06:09:25.363Z,34.53
2022-11-08T06:11:52.965Z,24.52
2022-11-08T06:14:20.319Z,28.12
2022-11-08T06:16:47.646Z,32.90
2022-11-08T06:19:15.238Z,29.35
2022-11-08T06:21:42.555Z,34.78
2022-11-08T06:24:09.893Z,28.67
2022-11-08T06:26:37.517Z,22.92
2022-11-08T06:29:04.803Z,21.20
2022-11-08T06:31:32.160Z,23.92
2022-11-08T06:33:59.752Z,24.23
2022-11-08T06:36:27.136Z,25.48
2022-11-08T06:38:55.210Z,27.90
2022-11-08T06:41:22.906Z,25.37
2022-11-08T06:43:50.294Z,27.98
2022-11-08T06:46:17.646Z,27.37
2022-11-08T06:48:45.283Z,34.05
2022-11-08T06:51:12.675Z,30.35
2022-11-08T06:53:40.111Z,26.62
2022-11-08T06:56:07.939Z,23.85
2022-11-08T06:58:35.573Z,24.95
2022-11-08T07:01:05.046Z,34.55
2022-11-08T07:03:33.187Z,25.37
2022-11-08T07:06:05.794Z,24.45
2022-11-08T07:08:33.441Z,21.30
2022-11-08T07:11:00.828Z,22.33
2022-11-08T07:13:28.198Z,21.00
2022-11-08T07:15:59.624Z,26.90
2022-11-08T07:18:27.452Z,19.90
2022-11-08T07:20:59.534Z,18.52
2022-11-08T07:23:27.832Z,17.42
2022-11-08T07:25:55.350Z,22.30
2022-11-08T07:28:22.689Z,20.23
2022-11-08T07:30:50.279Z,25.83
2022-11-08T07:33:18.273Z,21.02
2022-11-08T07:35:47.465Z,21.98
2022-11-08T07:38:15.139Z,20.55
2022-11-08T07:40:42.538Z,23.75
2022-11-08T07:43:12.716Z,21.27
2022-11-08T07:45:41.579Z,21.80
2022-11-08T07:48:12.664Z,27.40
2022-11-08T07:50:55.004Z,22.87
2022-11-08T07:53:32.124Z,19.33
2022-11-08T07:56:03.832Z,22.48
2022-11-08T07:58:34.449Z,22.95
2022-11-08T08:01:07.252Z,22.35
2022-11-08T08:03:44.755Z,21.50
2022-11-08T08:06:26.385Z,21.40
2022-11-08T08:08:54.008Z,21.37
2022-11-08T08:11:41.597Z,26.02
2022-11-08T08:14:27.692Z,20.88
2022-11-08T08:16:57.387Z,23.98
2022-11-08T08:22:08.381Z,23.15
2022-11-08T08:24:45.213Z,29.23
2022-11-08T08:27:14.139Z,28.45
2022-11-08T08:29:45.524Z,27.95
2022-11-08T08:32:13.316Z,25.15
2022-11-08T08:34:41.113Z,29.02
2022-11-08T08:37:15.309Z,29.50
2022-11-08T08:39:43.684Z,32.38
2022-11-08T08:42:20.125Z,32.88
2022-11-08T08:44:48.501Z,28.60
2022-11-08T08:47:17.136Z,28.38
2022-11-08T08:49:44.884Z,31.23
2022-11-08T08:52:38.028Z,27.17
2022-11-08T08:55:15.211Z,30.65
2022-11-08T08:57:47.160Z,34.40
2022-11-08T09:03:24.720Z,27.17
2022-11-08T09:05:53.373Z,29.15
2022-11-08T09:08:24.875Z,26.65
2022-11-08T09:10:56.456Z,25.08
2022-11-08T09:13:26.215Z,33.38
2022-11-08T09:15:54.972Z,32.67
2022-11-08T09:18:23.079Z,34.55
2022-11-08T09:20:50.468Z,37.17
2022-11-08T09:23:18.516Z,35.97
2022-11-08T09:25:46.145Z,39.15
2022-11-08T09:28:13.474Z,37.75
2022-11-08T09:30:41.071Z,38.83
2022-11-08T09:33:08.478Z,42.75
2022-11-08T09:35:35.883Z,36.67
2022-11-08T09:38:03.487Z,42.78
2022-11-08T09:40:37.578Z,39.80
2022-11-08T09:43:08.107Z,47.35
2022-11-08T09:45:42.460Z,50.90
2022-11-08T09:48:28.999Z,45.55
2022-11-08T09:50:57.723Z,44.53
2022-11-08T09:53:45.297Z,51.65
2022-11-08T09:56:23.977Z,48.10
2022-11-08T09:59:03.603Z,50.67
2022-11-08T10:01:35.342Z,58.65
2022-11-08T10:04:06.123Z,50.38
2022-11-08T10:07:01.893Z,53.85
2022-11-08T10:09:30.081Z,52.45
2022-11-08T10:12:20.013Z,55.03
2022-11-08T10:15:19.484Z,49.28
2022-11-08T10:18:05.693Z,50.67
2022-11-08T10:20:48.464Z,53.17
2022-11-08T10:23:24.313Z,43.55
2022-11-08T10:25:56.977Z,46.83
2022-11-08T10:28:37.572Z,44.72
2022-11-08T10:31:05.770Z,51.37
2022-11-08T10:33:43.188Z,47.58
2022-11-08T10:36:15.449Z,47.70
2022-11-08T10:38:51.460Z,44.08
2022-11-08T10:41:44.128Z,41.35
2022-11-08T10:44:15.864Z,44.08
2022-11-08T10:46:55.593Z,45.00
2022-11-08T10:49:31.233Z,40.15
2022-11-08T10:52:01.117Z,42.78
2022-11-08T10:54:48.923Z,42.62
2022-11-08T10:57:42.376Z,45.45
2022-11-08T11:00:36.162Z,45.40
2022-11-08T11:03:09.886Z,44.97
2022-11-08T11:05:55.665Z,39.30
2022-11-08T11:08:23.514Z,38.40
2022-11-08T11:10:51.042Z,35.78
2022-11-08T11:13:18.331Z,34.47
2022-11-08T11:15:46.628Z,35.85
2022-11-08T11:18:33.427Z,39.45
2022-11-08T11:21:06.355Z,33.75
2022-11-08T11:23:45.718Z,35.15
2022-11-08T11:26:32.926Z,37.53
2022-11-08T11:29:06.560Z,35.65
2022-11-08T11:31:38.663Z,35.03
2022-11-08T11:34:18.163Z,39.40
2022-11-08T11:36:57.925Z,37.90
2022-11-08T11:39:31.213Z,36.35
2022-11-08T11:42:17.802Z,35.40
2022-11-08T11:45:08.578Z,35.05
2022-11-08T11:47:55.927Z,36.33
2022-11-08T11:50:28.860Z,37.20
2022-11-08T11:52:57.551Z,38.75
2022-11-08T11:55:42.989Z,37.55
2022-11-08T11:58:30.873Z,39.03
2022-11-08T12:01:04.532Z,38.65
2022-11-08T12:03:57.722Z,33.80
2022-11-08T12:07:00.805Z,40.53
2022-11-08T12:09:53.622Z,37.47
2022-11-08T12:12:36.133Z,38.20
2022-11-08T12:15:17.264Z,39.80
2022-11-08T12:17:47.182Z,42.60
2022-11-08T12:20:26.617Z,40.08
2022-11-08T12:23:19.032Z,39.75
2022-11-08T12:25:52.592Z,38.72
2022-11-08T12:28:29.908Z,36.50
2022-11-08T12:31:04.219Z,33.00
2022-11-08T12:33:47.934Z,35.95
2022-11-08T12:36:32.413Z,31.87
2022-11-08T12:39:04.828Z,35.30
2022-11-08T12:41:40.331Z,29.67
2022-11-08T12:44:13.835Z,27.80
2022-11-08T12:46:50.630Z,29.17
2022-11-08T12:49:39.116Z,28.85
2022-11-08T12:52:22.808Z,28.50
2022-11-08T12:55:16.519Z,31.92
2022-11-08T12:57:45.475Z,33.67
2022-11-08T13:00:17.474Z,29.73
2022-11-08T13:03:10.634Z,29.95
2022-11-08T13:05:43.138Z,27.95
2022-11-08T13:08:20.183Z,31.10
2022-11-08T13:10:59.119Z,33.05
2022-11-08T13:13:28.382Z,28.70
2022-11-08T13:16:12.137Z,30.17
2022-11-08T13:18:54.486Z,34.47
2022-11-08T13:21:28.356Z,27.85
2022-11-08T13:24:09.957Z,30.20
2022-11-08T13:26:50.219Z,30.12
2022-11-08T13:29:18.021Z,28.58
2022-11-08T13:31:49.409Z,31.00
2022-11-08T13:34:38.062Z,29.40
2022-11-08T13:37:30.127Z,32.63
2022-11-08T13:40:12.808Z,32.40
2022-11-08T13:42:57.896Z,30.12
2022-11-08T13:45:33.206Z,31.67
2022-11-08T13:48:02.814Z,31.25
2022-11-08T13:50:31.459Z,28.75
2022-11-08T13:53:18.775Z,29.50
2022-11-08T13:55:49.121Z,32.25
2022-11-08T13:58:39.703Z,34.08
2022-11-08T14:01:07.219Z,31.67
2022-11-08T14:03:34.719Z,29.02
2022-11-08T14:06:04.930Z,29.52
2022-11-08T14:09:10.828Z,27.92
2022-11-08T14:12:18.606Z,30.15
2022-11-08T14:14:52.755Z,29.80
2022-11-08T14:17:29.225Z,27.45
2022-11-08T14:19:59.594Z,29.48
2022-11-08T14:22:28.508Z,30.98
2022-11-08T14:25:09.038Z,28.95
2022-11-08T14:27:39.431Z,30.33
2022-11-08T14:30:19.411Z,29.52
2022-11-08T14:32:47.392Z,29.90
2022-11-08T14:35:25.829Z,28.80
2022-11-08T14:37:54.706Z,30.77
2022-11-08T14:40:28.230Z,27.77
2022-11-08T14:42:56.349Z,29.48
2022-11-08T14:45:27.558Z,28.20
2022-11-08T14:48:03.653Z,29.45
2022-11-08T14:50:34.189Z,27.87
2022-11-08T14:53:20.678Z,28.30
2022-11-08T14:55:55.122Z,28.45
2022-11-08T14:58:22.818Z,26.62
2022-11-08T15:00:50.726Z,29.25
2022-11-08T15:03:19.811Z,30.17
2022-11-08T15:05:54.516Z,27.42
2022-11-08T15:08:27.409Z,32.88
2022-11-08T15:11:28.679Z,30.12
2022-11-08T15:14:05.458Z,32.00
2022-11-08T15:16:43.731Z,32.72
2022-11-08T15:19:37.324Z,33.42
2022-11-08T15:22:28.964Z,34.75
2022-11-08T15:25:15.722Z,36.35
2022-11-08T15:27:57.762Z,33.97
2022-11-08T15:30:31.456Z,38.13
2022-11-08T15:32:59.229Z,37.15
2022-11-08T15:35:47.135Z,35.72
2022-11-08T15:38:31.022Z,40.60
2022-11-08T15:41:02.272Z,41.72
2022-11-08T15:43:32.638Z,47.50
2022-11-08T15:46:01.143Z,47.88
2022-11-08T15:48:28.987Z,50.20
2022-11-08T15:50:56.924Z,54.45
2022-11-08T15:53:26.550Z,52.17
2022-11-08T15:55:57.681Z,59.63
2022-11-08T15:58:44.981Z,47.70
2022-11-08T16:01:20.820Z,57.95
2022-11-08T16:03:48.877Z,51.22
2022-11-08T16:06:16.343Z,55.22
2022-11-08T16:08:43.890Z,57.80
2022-11-08T16:11:21.157Z,52.92
2022-11-08T16:13:51.474Z,49.42
2022-11-08T16:16:20.170Z,47.47
2022-11-08T16:18:48.086Z,53.25
2022-11-08T16:21:15.853Z,52.97
2022-11-08T16:23:43.997Z,49.65
2022-11-08T16:26:17.419Z,50.65
2022-11-08T16:28:45.167Z,59.10
2022-11-08T16:31:17.792Z,54.92
2022-11-08T16:33:46.571Z,62.05
2022-11-08T16:36:20.740Z,60.42
2022-11-08T16:38:56.596Z,71.00
2022-11-08T16:41:25.153Z,59.70
2022-11-08T16:43:53.568Z,57.00
2022-11-08T16:46:22.231Z,55.35
2022-11-08T16:48:54.840Z,55.53
2022-11-08T16:51:32.181Z,63.72
2022-11-08T16:54:02.723Z,60.03
2022-11-08T16:56:30.956Z,55.50
2022-11-08T16:58:58.398Z,62.38
2022-11-08T17:01:31.732Z,58.17
2022-11-08T17:03:59.524Z,71.80
2022-11-08T17:06:27.319Z,64.65
2022-11-08T17:08:55.100Z,70.25
2022-11-08T17:11:24.278Z,65.68
2022-11-08T17:13:53.165Z,64.55
2022-11-08T17:16:21.190Z,67.93
2022-11-08T17:18:53.075Z,63.45
2022-11-08T17:24:09.436Z,69.05
2022-11-08T17:26:36.778Z,72.00
2022-11-08T17:29:06.515Z,65.97
2022-11-08T17:31:34.478Z,64.40
2022-11-08T17:34:02.168Z,78.32
2022-11-08T17:36:30.004Z,72.65
2022-11-08T17:38:58.662Z,71.57
2022-11-08T17:41:26.475Z,75.93
2022-11-08T17:43:54.479Z,73.97
2022-11-08T17:46:22.814Z,78.28
2022-11-08T17:48:50.844Z,70.62
2022-11-08T17:51:18.444Z,75.30
2022-11-08T17:53:46.579Z,71.93
2022-11-08T17:56:14.516Z,81.85
2022-11-08T17:58:42.309Z,81.37
2022-11-08T18:01:10.775Z,85.90
2022-11-08T18:03:38.694Z,90.35
2022-11-08T18:06:11.776Z,88.87
2022-11-08T18:08:40.614Z,96.22
2022-11-08T18:11:08.976Z,83.20
2022-11-08T18:13:37.512Z,80.95
2022-11-08T18:16:14.277Z,79.37
2022-11-08T18:18:43.380Z,72.18
2022-11-08T18:21:12.447Z,71.37
2022-11-08T18:23:44.721Z,76.25
2022-11-08T18:26:15.539Z,71.57
2022-11-08T18:28:44.793Z,75.87
2022-11-08T18:31:16.225Z,71.55
2022-11-08T18:33:47.816Z,73.93
2022-11-08T18:36:22.002Z,80.87
2022-11-08T18:38:51.870Z,83.22
2022-11-08T18:41:23.095Z,68.05
2022-11-08T18:43:51.506Z,71.22
2022-11-08T18:46:22.227Z,73.03
2022-11-08T18:48:50.833Z,78.05
2022-11-08T18:51:20.930Z,64.43
2022-11-08T18:53:49.632Z,67.93
2022-11-08T18:56:20.444Z,77.93
2022-11-08T18:58:49.342Z,81.95
2022-11-08T19:01:17.800Z,75.37
2022-11-08T19:03:46.385Z,81.65
2022-11-08T19:06:14.396Z,72.18
2022-11-08T19:08:42.652Z,71.47
2022-11-08T19:11:12.352Z,73.50
2022-11-08T19:13:40.903Z,73.60
2022-11-08T19:16:14.362Z,70.75
2022-11-08T19:18:43.040Z,68.95
2022-11-08T19:21:15.655Z,68.68
2022-11-08T19:23:43.933Z,66.62
2022-11-08T19:26:15.028Z,69.65
2022-11-08T19:28:46.050Z,67.87
2022-11-08T19:31:16.344Z,73.97
2022-11-08T19:33:45.121Z,79.78
2022-11-08T19:36:15.414Z,71.30
2022-11-08T19:38:44.484Z,74.80
2022-11-08T19:41:14.844Z,76.68
2022-11-08T19:43:44.339Z,73.25
2022-11-08T19:46:15.482Z,68.93
2022-11-08T19:48:45.653Z,72.12
2022-11-08T19:51:17.675Z,72.70
2022-11-08T19:53:46.415Z,72.57
2022-11-08T19:56:17.375Z,75.68
2022-11-08T19:58:46.012Z,72.72
2022-11-08T20:01:17.596Z,72.37
2022-11-08T20:03:46.452Z,75.15
2022-11-08T20:06:15.965Z,70.68
2022-11-08T20:08:47.351Z,77.43
2022-11-08T20:11:25.933Z,69.70
2022-11-08T20:13:53.693Z,76.78
2022-11-08T20:16:27.253Z,65.90
2022-11-08T20:18:56.890Z,76.93
2022-11-08T20:21:24.811Z,70.07
2022-11-08T20:23:52.329Z,76.57
2022-11-08T20:26:22.513Z,70.05
2022-11-08T20:28:56.517Z,65.40
2022-11-08T20:31:25.622Z,66.63
2022-11-08T20:33:54.996Z,72.82
2022-11-08T20:36:24.472Z,66.78
2022-11-08T20:38:58.360Z,72.25
2022-11-08T20:41:30.420Z,66.95
2022-11-08T20:43:58.519Z,69.70
2022-11-08T20:46:27.578Z,73.32
2022-11-08T20:49:00.823Z,68.62
2022-11-08T20:51:30.879Z,75.90
2022-11-08T20:54:01.153Z,63.38
2022-11-08T20:56:32.039Z,65.78
2022-11-08T20:59:01.787Z,66.85
2022-11-08T21:01:30.906Z,62.03
2022-11-08T21:03:58.838Z,61.33
2022-11-08T21:06:28.434Z,62.67
2022-11-08T21:08:59.962Z,60.03
2022-11-08T21:11:31.269Z,59.55
2022-11-08T21:13:59.097Z,62.88
2022-11-08T21:16:30.552Z,61.22
2022-11-08T21:19:01.355Z,67.30
2022-11-08T21:21:29.028Z,60.38
2022-11-08T21:23:56.708Z,69.10
2022-11-08T21:26:25.293Z,64.97
2022-11-08T21:28:53.785Z,56.65
2022-11-08T21:31:21.437Z,66.25
2022-11-08T21:33:49.764Z,57.72
2022-11-08T21:36:18.359Z,63.95
2022-11-08T21:38:47.954Z,61.55
2022-11-08T21:41:15.962Z,61.78
2022-11-08T21:43:44.649Z,60.15
2022-11-08T21:46:18.352Z,69.78
2022-11-08T21:48:46.755Z,60.40
